createdAt,value
2023-05-14T00:00:39.776Z,97881.09
2023-05-14T00:03:08.726Z,97884.94
2023-05-14T00:05:36.464Z,97884.06
2023-05-14T00:08:03.901Z,97877.22
2023-05-14T00:10:31.352Z,97864.19
2023-05-14T00:13:02.202Z,97868.34
2023-05-14T00:15:30.498Z,97871.47
2023-05-14T00:17:58.904Z,97863.06
2023-05-14T00:20:27.784Z,97857.81
2023-05-14T00:22:55.415Z,97860.50
2023-05-14T00:25:22.851Z,97854.44
2023-05-14T00:27:50.335Z,97856.09
2023-05-14T00:30:17.983Z,97858.19
2023-05-14T00:32:46.025Z,97856.09
2023-05-14T00:35:13.508Z,97857.69
2023-05-14T00:37:42.347Z,97847.81
2023-05-14T00:40:12.778Z,97850.28
2023-05-14T00:42:40.514Z,97850.09
2023-05-14T00:45:09.978Z,97856.25
2023-05-14T00:47:40.639Z,97853.16
2023-05-14T00:50:09.603Z,97856.25
2023-05-14T00:52:38.973Z,97854.00
2023-05-14T00:55:09.581Z,97857.81
2023-05-14T00:57:41.147Z,97851.97
2023-05-14T01:00:10.000Z,97856.78
2023-05-14T01:02:37.927Z,97857.00
2023-05-14T01:05:08.528Z,97855.91
2023-05-14T01:07:47.501Z,97857.81
2023-05-14T01:10:29.412Z,97850.09
2023-05-14T01:13:09.387Z,97849.28
2023-05-14T01:15:39.222Z,97853.25
2023-05-14T01:18:10.048Z,97857.38
2023-05-14T01:20:38.228Z,97849.84
2023-05-14T01:23:07.267Z,97849.34
2023-05-14T01:25:37.752Z,97850.56
2023-05-14T01:28:12.525Z,97850.16
2023-05-14T01:30:43.249Z,97845.38
2023-05-14T01:33:14.490Z,97846.41
2023-05-14T01:35:44.509Z,97855.53
2023-05-14T01:38:16.371Z,97850.63
2023-05-14T01:40:46.815Z,97851.06
2023-05-14T01:43:15.899Z,97839.94
2023-05-14T01:45:44.475Z,97855.41
2023-05-14T01:48:11.877Z,97851.50
2023-05-14T01:50:39.392Z,97855.47
2023-05-14T01:53:06.933Z,97861.25
2023-05-14T01:55:35.716Z,97849.47
2023-05-14T01:58:03.188Z,97854.19
2023-05-14T02:00:31.447Z,97843.19
2023-05-14T02:02:59.445Z,97838.59
2023-05-14T02:05:26.960Z,97850.66
2023-05-14T02:07:54.457Z,97842.44
2023-05-14T02:10:22.049Z,97833.88
2023-05-14T02:12:50.967Z,97830.50
2023-05-14T02:15:18.434Z,97837.72
2023-05-14T02:17:45.953Z,97829.09
2023-05-14T02:20:14.142Z,97824.56
2023-05-14T02:22:42.184Z,97837.97
2023-05-14T02:25:10.688Z,97847.31
2023-05-14T02:27:38.247Z,97839.69
2023-05-14T02:30:08.505Z,97836.19
2023-05-14T02:32:36.204Z,97829.97
2023-05-14T02:35:04.107Z,97856.22
2023-05-14T02:37:31.598Z,97864.41
2023-05-14T02:39:59.302Z,97861.97
2023-05-14T02:42:26.911Z,97863.91
2023-05-14T02:44:54.554Z,97845.19
2023-05-14T02:47:23.386Z,97846.75
2023-05-14T02:49:50.957Z,97843.47
2023-05-14T02:52:18.384Z,97842.13
2023-05-14T02:54:45.904Z,97850.84
2023-05-14T02:57:13.517Z,97853.25
2023-05-14T02:59:41.387Z,97839.59
2023-05-14T03:02:09.308Z,97832.38
2023-05-14T03:04:38.630Z,97822.84
2023-05-14T03:07:06.558Z,97821.88
2023-05-14T03:09:35.046Z,97825.66
2023-05-14T03:12:04.686Z,97821.94
2023-05-14T03:14:32.378Z,97824.75
2023-05-14T03:16:59.923Z,97813.69
2023-05-14T03:19:27.496Z,97820.72
2023-05-14T03:21:56.292Z,97809.78
2023-05-14T03:24:23.739Z,97813.97
2023-05-14T03:26:51.261Z,97817.84
2023-05-14T03:29:18.826Z,97816.78
2023-05-14T03:31:46.289Z,97820.16
2023-05-14T03:34:14.047Z,97819.72
2023-05-14T03:36:41.541Z,97823.66
2023-05-14T03:39:10.375Z,97829.03
2023-05-14T03:41:38.174Z,97825.75
2023-05-14T03:44:06.268Z,97825.13
2023-05-14T03:46:33.917Z,97825.06
2023-05-14T03:49:01.590Z,97819.75
2023-05-14T03:51:29.159Z,97814.84
2023-05-14T03:53:57.936Z,97814.84
2023-05-14T03:56:27.111Z,97824.53
2023-05-14T03:58:54.538Z,97814.03
2023-05-14T04:01:22.001Z,97816.72
2023-05-14T04:03:49.591Z,97823.97
2023-05-14T04:06:17.104Z,97821.91
2023-05-14T04:08:44.634Z,97824.56
2023-05-14T04:11:12.140Z,97825.41
2023-05-14T04:13:40.958Z,97831.94
2023-05-14T04:16:08.526Z,97833.69
2023-05-14T04:18:36.155Z,97833.41
2023-05-14T04:21:03.903Z,97823.56
2023-05-14T04:23:32.225Z,97829.38
2023-05-14T04:26:00.001Z,97825.66
2023-05-14T04:28:27.722Z,97821.34
2023-05-14T04:30:56.689Z,97828.13
2023-05-14T04:33:24.138Z,97822.44
2023-05-14T04:35:52.105Z,97824.25
2023-05-14T04:38:19.578Z,97822.03
2023-05-14T04:40:47.001Z,97823.72
2023-05-14T04:43:14.710Z,97820.75
2023-05-14T04:45:43.055Z,97817.69
2023-05-14T04:48:12.154Z,97834.31
2023-05-14T04:50:39.601Z,97836.94
2023-05-14T04:53:07.087Z,97842.88
2023-05-14T04:55:34.554Z,97831.59
2023-05-14T04:58:02.305Z,97834.44
2023-05-14T05:00:30.454Z,97831.19
2023-05-14T05:02:57.912Z,97834.13
2023-05-14T05:05:26.871Z,97827.97
2023-05-14T05:07:54.698Z,97821.34
2023-05-14T05:10:22.434Z,97825.03
2023-05-14T05:12:50.044Z,97815.41
2023-05-14T05:15:17.579Z,97827.06
2023-05-14T05:17:45.072Z,97808.53
2023-05-14T05:20:13.795Z,97810.84
2023-05-14T05:22:42.596Z,97803.94
2023-05-14T05:25:11.998Z,97804.84
2023-05-14T05:27:39.645Z,97799.81
2023-05-14T05:30:08.543Z,97791.81
2023-05-14T05:32:36.087Z,97792.41
2023-05-14T05:35:03.984Z,97791.41
2023-05-14T05:37:31.664Z,97792.03
2023-05-14T05:40:00.632Z,97789.31
2023-05-14T05:42:28.097Z,97791.00
2023-05-14T05:44:56.173Z,97782.91
2023-05-14T05:47:23.692Z,97793.09
2023-05-14T05:49:51.203Z,97785.41
2023-05-14T05:52:18.794Z,97787.00
2023-05-14T05:54:46.303Z,97789.53
2023-05-14T05:57:15.074Z,97788.31
2023-05-14T05:59:42.555Z,97786.22
2023-05-14T06:02:10.059Z,97782.91
2023-05-14T06:04:37.674Z,97784.38
2023-05-14T06:07:05.606Z,97786.84
2023-05-14T06:09:33.075Z,97778.97
2023-05-14T06:12:00.612Z,97786.25
2023-05-14T06:14:29.486Z,97786.44
2023-05-14T06:16:57.260Z,97793.66
2023-05-14T06:19:24.861Z,97783.31
2023-05-14T06:21:52.416Z,97794.91
2023-05-14T06:24:19.972Z,97798.66
2023-05-14T06:26:48.731Z,97797.34
2023-05-14T06:29:16.212Z,97791.16
2023-05-14T06:31:45.143Z,97804.03
2023-05-14T06:34:12.641Z,97794.03
2023-05-14T06:36:40.139Z,97795.66
2023-05-14T06:39:07.640Z,97789.81
2023-05-14T06:41:35.211Z,97790.84
2023-05-14T06:44:02.634Z,97794.69
2023-05-14T06:46:30.136Z,97782.56
2023-05-14T06:48:59.614Z,97780.63
2023-05-14T06:51:27.219Z,97790.28
2023-05-14T06:53:55.681Z,97786.34
2023-05-14T06:56:23.037Z,97783.19
2023-05-14T06:58:50.944Z,97786.13
2023-05-14T07:01:18.444Z,97779.88
2023-05-14T07:03:45.976Z,97799.13
2023-05-14T07:06:14.870Z,97788.25
2023-05-14T07:08:45.798Z,97795.66
2023-05-14T07:11:14.166Z,97790.94
2023-05-14T07:13:42.072Z,97779.31
2023-05-14T07:16:10.437Z,97790.50
2023-05-14T07:18:38.064Z,97791.94
2023-05-14T07:21:06.522Z,97780.19
2023-05-14T07:23:36.461Z,97770.81
2023-05-14T07:26:04.140Z,97772.53
2023-05-14T07:28:31.665Z,97775.66
2023-05-14T07:30:59.476Z,97769.09
2023-05-14T07:33:27.501Z,97770.66
2023-05-14T07:35:55.036Z,97766.97
2023-05-14T07:38:22.648Z,97770.28
2023-05-14T07:40:51.417Z,97768.38
2023-05-14T07:43:18.886Z,97768.56
2023-05-14T07:45:46.462Z,97764.63
2023-05-14T07:48:14.107Z,97769.00
2023-05-14T07:50:41.627Z,97767.75
2023-05-14T07:53:09.172Z,97757.06
2023-05-14T07:55:36.643Z,97750.00
2023-05-14T07:58:05.514Z,97753.91
2023-05-14T08:00:32.976Z,97759.63
2023-05-14T08:03:00.935Z,97749.03
2023-05-14T08:05:28.449Z,97743.47
2023-05-14T08:07:55.913Z,97747.97
2023-05-14T08:10:23.730Z,97736.88
2023-05-14T08:12:51.395Z,97740.78
2023-05-14T08:15:20.202Z,97740.75
2023-05-14T08:17:47.656Z,97745.56
2023-05-14T08:20:15.160Z,97750.16
2023-05-14T08:22:42.645Z,97741.63
2023-05-14T08:25:10.578Z,97756.75
2023-05-14T08:27:38.169Z,97750.06
2023-05-14T08:30:07.249Z,97757.09
2023-05-14T08:32:38.216Z,97747.34
2023-05-14T08:35:06.734Z,97741.56
2023-05-14T08:37:34.051Z,97751.13
2023-05-14T08:40:01.590Z,97750.59
2023-05-14T08:42:29.993Z,97749.97
2023-05-14T08:44:58.880Z,97753.69
2023-05-14T08:47:26.925Z,97748.53
2023-05-14T08:50:01.947Z,97752.84
2023-05-14T08:52:29.718Z,97742.50
2023-05-14T08:54:58.151Z,97741.22
2023-05-14T08:57:26.437Z,97742.41
2023-05-14T08:59:54.330Z,97739.91
2023-05-14T09:02:24.657Z,97740.84
2023-05-14T09:04:57.024Z,97728.75
2023-05-14T09:07:24.771Z,97725.78
2023-05-14T09:09:52.811Z,97724.69
2023-05-14T09:12:20.717Z,97717.31
2023-05-14T09:14:49.905Z,97727.50
2023-05-14T09:17:17.678Z,97733.34
2023-05-14T09:19:48.942Z,97738.38
2023-05-14T09:22:18.779Z,97734.56
2023-05-14T09:24:46.714Z,97735.66
2023-05-14T09:27:20.143Z,97737.50
2023-05-14T09:29:48.730Z,97744.19
2023-05-14T09:32:16.211Z,97737.56
2023-05-14T09:34:43.729Z,97729.56
2023-05-14T09:37:11.267Z,97731.44
2023-05-14T09:39:40.480Z,97725.66
2023-05-14T09:42:08.450Z,97723.38
2023-05-14T09:44:38.088Z,97714.59
2023-05-14T09:47:06.567Z,97713.72
2023-05-14T09:49:35.266Z,97703.59
2023-05-14T09:52:03.753Z,97713.44
2023-05-14T09:54:32.897Z,97697.38
2023-05-14T09:57:01.768Z,97695.78
2023-05-14T09:59:29.466Z,97694.66
2023-05-14T10:01:59.151Z,97690.75
2023-05-14T10:04:26.777Z,97683.47
2023-05-14T10:06:54.762Z,97684.31
2023-05-14T10:09:26.189Z,97683.53
2023-05-14T10:11:57.428Z,97688.72
2023-05-14T10:14:34.397Z,97685.50
2023-05-14T10:17:02.734Z,97678.78
2023-05-14T10:19:35.001Z,97682.81
2023-05-14T10:22:06.067Z,97674.44
2023-05-14T10:24:34.225Z,97677.59
2023-05-14T10:27:02.124Z,97667.44
2023-05-14T10:29:34.954Z,97673.31
2023-05-14T10:32:06.238Z,97668.00
2023-05-14T10:34:37.447Z,97667.75
2023-05-14T10:37:07.123Z,97664.09
2023-05-14T10:39:45.648Z,97662.72
2023-05-14T10:42:14.240Z,97662.25
2023-05-14T10:44:49.179Z,97658.34
2023-05-14T10:47:17.835Z,97645.25
2023-05-14T10:49:48.936Z,97649.41
2023-05-14T10:52:19.145Z,97650.34
2023-05-14T10:54:51.991Z,97645.56
2023-05-14T10:57:20.273Z,97642.75
2023-05-14T10:59:53.139Z,97634.41
2023-05-14T11:02:23.075Z,97623.97
2023-05-14T11:04:56.565Z,97636.16
2023-05-14T11:07:28.150Z,97633.06
2023-05-14T11:10:01.684Z,97628.59
2023-05-14T11:12:29.461Z,97630.28
2023-05-14T11:15:00.696Z,97632.94
2023-05-14T11:17:29.404Z,97635.78
2023-05-14T11:19:57.584Z,97641.22
2023-05-14T11:22:25.645Z,97626.25
2023-05-14T11:24:54.253Z,97615.75
2023-05-14T11:27:22.904Z,97626.13
2023-05-14T11:29:51.528Z,97629.31
2023-05-14T11:32:21.249Z,97616.63
2023-05-14T11:34:48.896Z,97615.41
2023-05-14T11:37:17.555Z,97616.25
2023-05-14T11:39:49.981Z,97624.06
2023-05-14T11:42:19.364Z,97630.78
2023-05-14T11:44:48.927Z,97631.16
2023-05-14T11:47:18.144Z,97633.31
2023-05-14T11:49:47.292Z,97613.41
2023-05-14T11:52:16.050Z,97610.56
2023-05-14T11:54:44.832Z,97608.50
2023-05-14T11:57:13.963Z,97612.09
2023-05-14T11:59:41.862Z,97609.31
2023-05-14T12:02:11.593Z,97601.53
2023-05-14T12:04:39.732Z,97598.72
2023-05-14T12:07:13.107Z,97599.22
2023-05-14T12:09:44.218Z,97591.34
2023-05-14T12:12:13.604Z,97591.91
2023-05-14T12:14:42.802Z,97587.66
2023-05-14T12:17:15.273Z,97579.00
2023-05-14T12:19:44.039Z,97584.84
2023-05-14T12:22:15.669Z,97577.19
2023-05-14T12:24:44.481Z,97585.91
2023-05-14T12:27:11.984Z,97590.72
2023-05-14T12:29:39.970Z,97589.06
2023-05-14T12:32:11.026Z,97584.38
2023-05-14T12:34:39.284Z,97578.88
2023-05-14T12:37:07.108Z,97580.69
2023-05-14T12:39:36.095Z,97577.22
2023-05-14T12:42:03.690Z,97576.03
2023-05-14T12:44:31.214Z,97568.41
2023-05-14T12:46:58.782Z,97568.97
2023-05-14T12:49:26.360Z,97561.81
2023-05-14T12:52:07.736Z,97560.28
2023-05-14T12:54:41.640Z,97551.09
2023-05-14T12:57:10.288Z,97539.53
2023-05-14T12:59:37.783Z,97529.00
2023-05-14T13:02:05.310Z,97538.94
2023-05-14T13:04:32.852Z,97539.16
2023-05-14T13:07:00.552Z,97548.81
2023-05-14T13:09:28.649Z,97548.41
2023-05-14T13:11:57.504Z,97541.44
2023-05-14T13:14:25.011Z,97542.84
2023-05-14T13:16:52.642Z,97542.34
2023-05-14T13:19:20.136Z,97535.09
2023-05-14T13:21:47.704Z,97521.56
2023-05-14T13:24:15.170Z,97522.19
2023-05-14T13:26:44.442Z,97522.44
2023-05-14T13:29:13.394Z,97522.84
2023-05-14T13:31:41.241Z,97524.81
2023-05-14T13:34:10.091Z,97519.69
2023-05-14T13:36:39.628Z,97521.75
2023-05-14T13:39:07.199Z,97505.88
2023-05-14T13:41:35.650Z,97511.69
2023-05-14T13:44:03.118Z,97505.31
2023-05-14T13:46:32.060Z,97493.38
2023-05-14T13:48:59.766Z,97490.72
2023-05-14T13:51:27.317Z,97492.28
2023-05-14T13:56:27.136Z,97479.94
2023-05-14T13:58:54.645Z,97480.91
2023-05-14T14:01:23.222Z,97464.03
2023-05-14T14:03:52.284Z,97457.31
2023-05-14T14:06:19.762Z,97452.03
2023-05-14T14:08:47.184Z,97456.28
2023-05-14T14:11:14.640Z,97455.91
2023-05-14T14:13:43.726Z,97462.78
2023-05-14T14:16:12.548Z,97456.34
2023-05-14T14:18:40.058Z,97447.09
2023-05-14T14:21:09.340Z,97464.28
2023-05-14T14:23:36.909Z,97467.41
2023-05-14T14:26:04.617Z,97459.44
2023-05-14T14:28:32.128Z,97468.94
2023-05-14T14:30:59.571Z,97463.19
2023-05-14T14:33:27.252Z,97459.19
2023-05-14T14:35:54.730Z,97459.81
2023-05-14T14:38:23.536Z,97450.16
2023-05-14T14:40:51.275Z,97447.09
2023-05-14T14:43:18.790Z,97450.72
2023-05-14T14:45:48.308Z,97448.78
2023-05-14T14:48:24.433Z,97447.44
2023-05-14T14:50:52.599Z,97441.38
2023-05-14T14:53:20.128Z,97446.66
2023-05-14T14:55:49.027Z,97440.50
2023-05-14T14:58:16.593Z,97437.34
2023-05-14T15:00:44.452Z,97432.75
2023-05-14T15:03:12.464Z,97432.28
2023-05-14T15:05:39.990Z,97430.31
2023-05-14T15:08:07.549Z,97437.84
2023-05-14T15:10:37.669Z,97428.53
2023-05-14T15:13:07.589Z,97429.63
2023-05-14T15:15:36.352Z,97420.03
2023-05-14T15:18:04.226Z,97412.78
2023-05-14T15:20:31.921Z,97419.41
2023-05-14T15:22:59.435Z,97414.25
2023-05-14T15:25:27.760Z,97418.72
2023-05-14T15:27:55.379Z,97413.94
2023-05-14T15:30:24.176Z,97423.22
2023-05-14T15:32:51.777Z,97429.75
2023-05-14T15:35:19.510Z,97415.16
2023-05-14T15:37:46.997Z,97420.66
2023-05-14T15:40:14.537Z,97419.94
2023-05-14T15:42:43.701Z,97413.84
2023-05-14T15:45:12.822Z,97399.91
2023-05-14T15:47:42.041Z,97397.50
2023-05-14T15:50:09.972Z,97400.97
2023-05-14T15:52:39.019Z,97391.06
2023-05-14T15:55:07.435Z,97394.13
2023-05-14T15:57:35.098Z,97398.97
2023-05-14T16:00:05.991Z,97405.13
2023-05-14T16:02:33.550Z,97406.91
2023-05-14T16:05:02.395Z,97398.97
2023-05-14T16:07:29.898Z,97405.31
2023-05-14T16:09:57.365Z,97416.88
2023-05-14T16:12:24.807Z,97401.94
2023-05-14T16:14:52.323Z,97407.69
2023-05-14T16:17:19.776Z,97414.59
2023-05-14T16:19:47.206Z,97410.50
2023-05-14T16:22:16.120Z,97402.31
2023-05-14T16:24:44.680Z,97413.69
2023-05-14T16:27:12.437Z,97405.53
2023-05-14T16:29:39.871Z,97399.97
2023-05-14T16:32:07.806Z,97388.91
2023-05-14T16:34:35.305Z,97394.63
2023-05-14T16:37:02.785Z,97399.06
2023-05-14T16:39:31.665Z,97393.38
2023-05-14T16:41:59.158Z,97397.16
2023-05-14T16:44:26.597Z,97402.22
2023-05-14T16:46:54.046Z,97409.75
2023-05-14T16:49:22.401Z,97411.47
2023-05-14T16:51:49.947Z,97405.53
2023-05-14T16:54:17.410Z,97408.00
2023-05-14T16:56:47.943Z,97410.13
2023-05-14T16:59:15.773Z,97404.56
2023-05-14T17:01:43.787Z,97405.63
2023-05-14T17:04:11.582Z,97399.72
2023-05-14T17:06:39.130Z,97412.69
2023-05-14T17:09:06.899Z,97403.41
2023-05-14T17:11:34.366Z,97406.13
2023-05-14T17:14:03.169Z,97400.78
2023-05-14T17:16:30.660Z,97412.94
2023-05-14T17:18:58.221Z,97407.69
2023-05-14T17:21:25.856Z,97415.38
2023-05-14T17:23:53.326Z,97413.47
2023-05-14T17:26:21.129Z,97417.72
2023-05-14T17:28:48.579Z,97411.09
2023-05-14T17:31:17.402Z,97413.25
2023-05-14T17:33:44.918Z,97413.97
2023-05-14T17:36:12.428Z,97409.44
2023-05-14T17:38:40.993Z,97407.66
2023-05-14T17:41:08.474Z,97405.75
2023-05-14T17:43:35.944Z,97412.69
2023-05-14T17:46:03.605Z,97406.78
2023-05-14T17:48:32.417Z,97406.25
2023-05-14T17:50:59.926Z,97410.59
2023-05-14T17:53:27.429Z,97407.66
2023-05-14T17:55:54.958Z,97412.72
2023-05-14T17:58:22.550Z,97425.81
2023-05-14T18:00:50.024Z,97420.19
2023-05-14T18:03:20.115Z,97422.03
2023-05-14T18:05:49.119Z,97426.06
2023-05-14T18:08:16.577Z,97415.47
2023-05-14T18:10:46.882Z,97424.84
2023-05-14T18:13:14.378Z,97425.53
2023-05-14T18:15:41.967Z,97432.84
2023-05-14T18:18:09.474Z,97441.38
2023-05-14T18:20:37.174Z,97447.88
2023-05-14T18:23:05.976Z,97441.97
2023-05-14T18:25:33.449Z,97442.69
2023-05-14T18:28:00.933Z,97446.81
2023-05-14T18:30:28.399Z,97443.03
2023-05-14T18:32:55.888Z,97446.44
2023-05-14T18:35:23.409Z,97447.50
2023-05-14T18:37:52.990Z,97447.97
2023-05-14T18:40:22.060Z,97452.31
2023-05-14T18:42:49.515Z,97462.69
2023-05-14T18:45:17.194Z,97464.69
2023-05-14T18:47:44.801Z,97458.56
2023-05-14T18:50:12.492Z,97451.03
2023-05-14T18:52:39.971Z,97451.88
2023-05-14T18:55:08.263Z,97453.28
2023-05-14T18:57:37.394Z,97472.44
2023-05-14T19:00:06.120Z,97474.19
2023-05-14T19:02:33.891Z,97462.09
2023-05-14T19:05:01.492Z,97475.97
2023-05-14T19:07:30.212Z,97473.00
2023-05-14T19:09:57.715Z,97478.88
2023-05-14T19:12:25.189Z,97487.13
2023-05-14T19:14:53.961Z,97485.59
2023-05-14T19:17:22.052Z,97489.59
2023-05-14T19:19:49.599Z,97493.81
2023-05-14T19:22:17.329Z,97482.22
2023-05-14T19:24:44.788Z,97490.34
2023-05-14T19:27:13.737Z,97488.66
2023-05-14T19:29:41.164Z,97493.59
2023-05-14T19:32:10.399Z,97491.22
2023-05-14T19:34:37.960Z,97489.00
2023-05-14T19:37:06.269Z,97493.22
2023-05-14T19:39:33.567Z,97497.19
2023-05-14T19:42:01.206Z,97492.50
2023-05-14T19:44:30.699Z,97490.34
2023-05-14T19:46:58.374Z,97484.63
2023-05-14T19:49:27.315Z,97492.28
2023-05-14T19:51:54.811Z,97485.00
2023-05-14T19:54:22.284Z,97483.34
2023-05-14T19:56:49.790Z,97482.00
2023-05-14T19:59:17.242Z,97491.56
2023-05-14T20:01:44.852Z,97493.22
2023-05-14T20:04:13.934Z,97487.50
2023-05-14T20:06:47.090Z,97487.28
2023-05-14T20:09:15.381Z,97482.94
2023-05-14T20:11:42.684Z,97486.09
2023-05-14T20:14:10.222Z,97479.97
2023-05-14T20:16:38.162Z,97483.97
2023-05-14T20:19:05.783Z,97486.25
2023-05-14T20:21:33.245Z,97490.84
2023-05-14T20:24:02.216Z,97485.53
2023-05-14T20:26:30.045Z,97495.84
2023-05-14T20:28:57.530Z,97485.56
2023-05-14T20:31:25.182Z,97481.25
2023-05-14T20:33:52.753Z,97481.72
2023-05-14T20:36:20.462Z,97481.25
2023-05-14T20:38:48.271Z,97470.69
2023-05-14T20:41:17.085Z,97471.97
2023-05-14T20:43:44.646Z,97469.41
2023-05-14T20:46:12.720Z,97474.53
2023-05-14T20:48:40.206Z,97468.31
2023-05-14T20:51:07.742Z,97464.44
2023-05-14T20:53:35.349Z,97463.72
2023-05-14T20:56:02.795Z,97457.59
2023-05-14T20:58:31.602Z,97464.28
2023-05-14T21:01:00.514Z,97462.06
2023-05-14T21:03:28.261Z,97457.09
2023-05-14T21:05:56.654Z,97460.09
2023-05-14T21:08:24.025Z,97456.88
2023-05-14T21:10:51.632Z,97460.63
2023-05-14T21:13:19.068Z,97456.66
2023-05-14T21:15:47.943Z,97458.50
2023-05-14T21:18:15.620Z,97458.28
2023-05-14T21:20:43.140Z,97459.44
2023-05-14T21:23:10.650Z,97462.50
2023-05-14T21:25:38.187Z,97468.72
2023-05-14T21:28:05.880Z,97464.94
2023-05-14T21:30:33.323Z,97467.84
2023-05-14T21:33:02.190Z,97476.31
2023-05-14T21:35:29.797Z,97467.81
2023-05-14T21:37:57.301Z,97477.34
2023-05-14T21:40:24.736Z,97473.31
2023-05-14T21:42:52.220Z,97454.16
2023-05-14T21:45:21.098Z,97465.03
2023-05-14T21:47:49.737Z,97459.66
2023-05-14T21:50:18.713Z,97455.97
2023-05-14T21:52:46.600Z,97449.06
2023-05-14T21:55:14.184Z,97450.72
2023-05-14T21:57:41.707Z,97447.63
2023-05-14T22:00:12.860Z,97451.81
2023-05-14T22:02:40.569Z,97447.78
2023-05-14T22:05:08.545Z,97448.19
2023-05-14T22:07:37.346Z,97452.09
2023-05-14T22:10:05.184Z,97452.03
2023-05-14T22:12:32.623Z,97449.34
2023-05-14T22:15:00.118Z,97450.38
2023-05-14T22:17:27.813Z,97449.91
2023-05-14T22:19:55.410Z,97445.97
2023-05-14T22:22:25.905Z,97444.69
2023-05-14T22:24:54.765Z,97444.91
2023-05-14T22:27:24.964Z,97439.53
2023-05-14T22:29:52.482Z,97444.53
2023-05-14T22:32:19.989Z,97438.19
2023-05-14T22:34:47.461Z,97447.47
2023-05-14T22:37:15.545Z,97444.31
2023-05-14T22:39:43.117Z,97442.22
2023-05-14T22:42:11.993Z,97440.53
2023-05-14T22:44:39.519Z,97433.84
2023-05-14T22:47:07.220Z,97433.84
2023-05-14T22:49:34.725Z,97433.25
2023-05-14T22:52:02.220Z,97430.16
2023-05-14T22:54:29.737Z,97447.09
2023-05-14T22:56:57.193Z,97428.31
2023-05-14T22:59:25.994Z,97421.03
2023-05-14T23:01:53.472Z,97413.56
2023-05-14T23:04:21.867Z,97407.22
2023-05-14T23:06:49.285Z,97395.97
2023-05-14T23:09:16.719Z,97395.97
2023-05-14T23:11:44.283Z,97402.97
2023-05-14T23:14:11.929Z,97395.59
2023-05-14T23:16:40.844Z,97399.56
2023-05-14T23:19:08.510Z,97393.50
2023-05-14T23:21:36.254Z,97387.41
2023-05-14T23:24:03.709Z,97390.47
2023-05-14T23:26:31.278Z,97389.59
2023-05-14T23:28:58.803Z,97383.09
2023-05-14T23:31:26.274Z,97387.50
2023-05-14T23:33:55.126Z,97390.88
2023-05-14T23:36:22.972Z,97381.44
2023-05-14T23:38:50.723Z,97379.44
2023-05-14T23:41:18.169Z,97374.88
2023-05-14T23:43:45.675Z,97374.13
2023-05-14T23:46:13.369Z,97364.38
2023-05-14T23:48:40.882Z,97367.75
2023-05-14T23:51:09.657Z,97362.00
2023-05-14T23:53:37.314Z,97357.34
2023-05-14T23:56:04.970Z,97356.28
2023-05-14T23:58:32.880Z,97354.94
